createdAt,value
2022-08-20T00:04:02.120Z,99.90
2022-08-20T00:09:06.828Z,99.90
2022-08-20T00:14:12.411Z,99.90
2022-08-20T00:19:18.773Z,99.90
2022-08-20T00:24:23.773Z,99.90
2022-08-20T00:29:29.777Z,99.90
2022-08-20T00:34:35.917Z,99.90
2022-08-20T00:39:40.608Z,99.90
2022-08-20T00:44:48.289Z,99.90
2022-08-20T00:49:54.559Z,99.90
2022-08-20T00:55:03.269Z,99.90
2022-08-20T01:00:14.405Z,99.90
2022-08-20T01:05:23.586Z,99.90
2022-08-20T01:10:38.985Z,99.90
2022-08-20T01:15:48.141Z,99.90
2022-08-20T01:20:59.805Z,99.90
2022-08-20T01:26:11.899Z,99.90
2022-08-20T01:31:20.594Z,99.90
2022-08-20T01:36:30.372Z,99.90
2022-08-20T01:42:00.968Z,99.90
2022-08-20T01:47:16.827Z,99.90
2022-08-20T01:52:29.712Z,99.90
2022-08-20T01:57:36.657Z,99.90
2022-08-20T02:02:41.250Z,99.90
2022-08-20T02:07:46.093Z,99.90
2022-08-20T02:12:53.088Z,99.90
2022-08-20T02:17:58.774Z,99.90
2022-08-20T02:23:05.394Z,99.90
2022-08-20T02:28:19.320Z,99.90
2022-08-20T02:33:24.881Z,99.90
2022-08-20T02:38:29.788Z,99.90
2022-08-20T02:43:36.381Z,99.90
2022-08-20T02:48:40.948Z,99.90
2022-08-20T02:53:45.516Z,99.90
2022-08-20T02:58:51.666Z,99.90
2022-08-20T03:03:59.059Z,99.90
2022-08-20T03:09:06.119Z,99.90
2022-08-20T03:14:12.119Z,99.90
2022-08-20T03:19:17.089Z,99.90
2022-08-20T03:24:21.852Z,99.90
2022-08-20T03:29:27.905Z,99.90
2022-08-20T03:34:33.173Z,99.90
2022-08-20T03:39:37.995Z,99.90
2022-08-20T03:44:44.483Z,99.90
2022-08-20T03:49:49.950Z,99.90
2022-08-20T03:54:54.392Z,99.90
2022-08-20T04:00:00.195Z,99.90
2022-08-20T04:05:05.380Z,99.90
2022-08-20T04:10:14.028Z,99.90
2022-08-20T04:15:23.248Z,99.90
2022-08-20T04:20:28.640Z,99.90
2022-08-20T04:25:35.813Z,99.90
2022-08-20T04:30:43.330Z,99.90
2022-08-20T04:35:52.096Z,99.90
2022-08-20T04:41:01.079Z,99.90
2022-08-20T04:46:10.369Z,99.90
2022-08-20T04:51:15.816Z,99.90
2022-08-20T04:56:23.522Z,99.90
2022-08-20T05:01:30.654Z,99.90
2022-08-20T05:06:35.292Z,99.90
2022-08-20T05:11:39.787Z,99.90
2022-08-20T05:16:45.580Z,99.90
2022-08-20T05:21:52.393Z,99.90
2022-08-20T05:26:56.876Z,99.90
2022-08-20T05:32:03.056Z,99.90
2022-08-20T05:37:07.794Z,99.90
2022-08-20T05:42:12.651Z,99.90
2022-08-20T05:47:19.270Z,99.90
2022-08-20T05:52:26.298Z,99.90
2022-08-20T05:57:30.821Z,99.90
2022-08-20T06:02:54.282Z,99.90
2022-08-20T06:07:58.671Z,99.90
2022-08-20T06:13:13.757Z,99.90
2022-08-20T06:18:28.328Z,99.90
2022-08-20T06:23:50.377Z,99.90
2022-08-20T06:28:59.823Z,99.90
2022-08-20T06:34:06.395Z,99.90
2022-08-20T06:39:10.850Z,99.90
2022-08-20T06:44:15.361Z,99.90
2022-08-20T06:49:21.250Z,99.90
2022-08-20T06:54:28.686Z,99.90
2022-08-20T06:59:33.992Z,99.90
2022-08-20T07:04:39.938Z,99.90
2022-08-20T07:09:44.861Z,99.90
2022-08-20T07:14:49.467Z,99.90
2022-08-20T07:19:55.209Z,99.90
2022-08-20T07:25:00.036Z,99.90
2022-08-20T07:30:25.261Z,99.90
2022-08-20T07:35:31.191Z,99.90
2022-08-20T07:40:37.013Z,99.90
2022-08-20T07:45:41.445Z,99.90
2022-08-20T07:50:55.583Z,99.90
2022-08-20T07:56:00.074Z,99.90
2022-08-20T08:01:05.815Z,99.90
2022-08-20T08:06:11.709Z,99.90
2022-08-20T08:11:19.500Z,99.90
2022-08-20T08:16:24.107Z,99.90
2022-08-20T08:21:31.348Z,99.90
2022-08-20T08:26:35.843Z,99.90
2022-08-20T08:31:42.315Z,99.90
2022-08-20T08:36:48.079Z,99.90
2022-08-20T08:41:57.159Z,99.90
2022-08-20T08:47:18.295Z,99.90
2022-08-20T08:52:31.526Z,99.90
2022-08-20T08:57:37.984Z,99.90
2022-08-20T09:02:55.755Z,99.90
2022-08-20T09:08:06.728Z,99.90
2022-08-20T09:13:11.177Z,99.90
2022-08-20T09:18:15.772Z,99.90
2022-08-20T09:23:21.390Z,99.90
2022-08-20T09:28:26.045Z,99.60
2022-08-20T09:33:36.960Z,96.50
2022-08-20T09:38:42.673Z,95.00
2022-08-20T09:43:47.081Z,95.20
2022-08-20T09:48:53.349Z,92.70
2022-08-20T09:54:55.069Z,80.90
2022-08-20T10:00:06.354Z,62.60
2022-08-20T10:05:17.254Z,64.40
2022-08-20T10:10:29.173Z,79.40
2022-08-20T10:15:34.504Z,99.90
2022-08-20T10:20:41.671Z,99.90
2022-08-20T10:25:47.288Z,99.90
2022-08-20T10:30:55.475Z,99.90
2022-08-20T10:41:50.232Z,99.90
2022-08-20T10:46:57.206Z,99.90
2022-08-20T10:52:02.602Z,99.90
2022-08-20T10:57:17.311Z,99.90
2022-08-20T11:02:32.459Z,92.90
2022-08-20T11:07:49.826Z,76.40
2022-08-20T11:13:13.601Z,69.50
2022-08-20T11:19:21.564Z,70.60
2022-08-20T11:26:30.942Z,79.60
2022-08-20T11:32:08.123Z,85.20
2022-08-20T11:44:46.679Z,74.10
2022-08-20T11:50:26.897Z,60.30
2022-08-20T11:55:43.547Z,55.60
2022-08-20T12:00:50.275Z,49.80
2022-08-20T12:05:58.121Z,49.20
2022-08-20T12:11:04.860Z,72.10
2022-08-20T12:16:09.711Z,99.90
2022-08-20T12:21:19.348Z,99.90
2022-08-20T12:26:24.224Z,99.90
2022-08-20T12:31:29.166Z,99.90
2022-08-20T12:36:35.760Z,99.90
2022-08-20T12:41:40.640Z,79.40
2022-08-20T12:46:51.016Z,62.20
2022-08-20T12:51:58.451Z,57.70
2022-08-20T12:57:57.138Z,51.90
2022-08-20T13:03:11.678Z,46.10
2022-08-20T13:08:19.613Z,42.50
2022-08-20T13:13:24.932Z,40.70
2022-08-20T13:18:30.104Z,40.40
2022-08-20T13:23:36.851Z,37.60
2022-08-20T13:28:49.260Z,37.20
2022-08-20T13:33:58.464Z,35.80
2022-08-20T13:39:09.891Z,33.90
2022-08-20T13:44:14.641Z,35.50
2022-08-20T13:49:19.403Z,39.50
2022-08-20T13:54:29.906Z,50.00
2022-08-20T13:59:56.719Z,62.20
2022-08-20T14:05:10.432Z,61.90
2022-08-20T14:10:24.831Z,64.10
2022-08-20T14:15:36.848Z,63.10
2022-08-20T14:20:43.318Z,64.00
2022-08-20T14:25:54.509Z,65.70
2022-08-20T14:30:59.865Z,67.20
2022-08-20T14:36:05.928Z,67.00
2022-08-20T14:41:20.585Z,64.50
2022-08-20T14:46:25.575Z,61.60
2022-08-20T14:51:32.840Z,59.80
2022-08-20T14:56:39.071Z,57.80
2022-08-20T15:01:44.664Z,55.10
2022-08-20T15:06:50.613Z,51.30
2022-08-20T15:12:01.068Z,45.80
2022-08-20T15:17:06.014Z,44.60
2022-08-20T15:22:10.963Z,42.40
2022-08-20T15:27:22.962Z,43.80
2022-08-20T15:32:28.082Z,43.00
2022-08-20T15:37:32.935Z,40.10
2022-08-20T15:42:40.497Z,39.20
2022-08-20T15:48:00.710Z,38.50
2022-08-20T15:53:12.433Z,38.50
2022-08-20T15:58:33.888Z,37.70
2022-08-20T16:04:45.805Z,37.60
2022-08-20T16:10:26.039Z,38.40
2022-08-20T16:15:49.602Z,41.10
2022-08-20T16:21:04.046Z,48.40
2022-08-20T16:27:26.049Z,53.30
2022-08-20T16:33:07.888Z,48.50
2022-08-20T16:38:34.388Z,44.10
2022-08-20T16:43:54.542Z,44.20
2022-08-20T16:49:25.023Z,44.50
2022-08-20T16:54:33.970Z,42.70
2022-08-20T17:00:06.327Z,43.30
2022-08-20T17:05:12.302Z,46.70
2022-08-20T17:10:22.084Z,51.20
2022-08-20T17:15:36.058Z,54.80
2022-08-20T17:20:46.829Z,57.00
2022-08-20T17:26:00.455Z,58.70
2022-08-20T17:31:05.500Z,59.80
2022-08-20T17:37:40.760Z,61.50
2022-08-20T17:50:09.777Z,64.00
2022-08-20T17:55:21.972Z,64.90
2022-08-20T18:00:30.603Z,66.10
2022-08-20T18:05:45.929Z,66.90
2022-08-20T18:11:21.188Z,67.90
2022-08-20T18:16:55.302Z,68.20
2022-08-20T18:22:34.364Z,70.00
2022-08-20T18:27:51.247Z,71.60
2022-08-20T18:33:24.623Z,73.80
2022-08-20T19:17:00.613Z,99.90
2022-08-20T19:31:14.854Z,99.90
2022-08-20T19:43:22.370Z,99.90
2022-08-20T19:48:47.934Z,99.90
2022-08-20T19:53:52.655Z,99.90
2022-08-20T19:59:03.395Z,99.90
2022-08-20T20:04:20.607Z,99.90
2022-08-20T20:09:29.972Z,99.90
2022-08-20T20:14:39.908Z,99.90
2022-08-20T20:19:53.400Z,99.90
2022-08-20T20:25:21.339Z,99.90
2022-08-20T20:30:31.390Z,99.90
2022-08-20T20:35:38.497Z,99.90
2022-08-20T20:40:52.236Z,99.90
2022-08-20T20:46:07.923Z,99.90
2022-08-20T20:51:25.871Z,99.90
2022-08-20T20:56:35.983Z,99.90
2022-08-20T21:01:50.210Z,99.90
2022-08-20T21:07:00.292Z,99.90
2022-08-20T21:12:07.270Z,99.90
2022-08-20T21:17:24.111Z,99.90
2022-08-20T21:22:30.198Z,99.90
2022-08-20T21:27:36.684Z,99.90
2022-08-20T21:32:41.382Z,99.90
2022-08-20T21:37:47.851Z,99.90
2022-08-20T21:42:52.535Z,99.90
2022-08-20T21:47:58.851Z,99.90
2022-08-20T21:53:12.834Z,99.90
2022-08-20T21:58:18.395Z,99.90
2022-08-20T22:03:26.706Z,99.90
2022-08-20T22:08:33.223Z,99.90
2022-08-20T22:13:38.756Z,99.90
2022-08-20T22:18:44.010Z,99.90
2022-08-20T22:23:51.644Z,99.90
2022-08-20T22:28:58.164Z,99.90
2022-08-20T22:34:03.441Z,99.90
2022-08-20T22:39:10.754Z,99.90
2022-08-20T22:44:15.256Z,99.90
2022-08-20T22:49:25.126Z,99.90
2022-08-20T22:54:32.272Z,99.90
2022-08-20T22:59:45.904Z,99.90
2022-08-20T23:04:54.275Z,99.90
2022-08-20T23:10:00.181Z,99.90
2022-08-20T23:15:12.090Z,99.90
2022-08-20T23:20:19.305Z,99.90
2022-08-20T23:25:26.871Z,99.90
2022-08-20T23:30:34.853Z,99.90
2022-08-20T23:35:42.749Z,99.90
2022-08-20T23:41:17.186Z,99.90
2022-08-20T23:46:43.876Z,99.90
2022-08-20T23:51:48.896Z,99.90
2022-08-20T23:56:56.770Z,99.90
